Udo Maru — JM6522 — position and weather

sailwx.info

Track history (hours):
 
Tides and Currents Weather Stations Pressure Air Temp Water Temp Dewpoint Dewpoint Depression Visibility Wind Speed Wind Dir Waves Ship Positions

Udo Maru

Last reported at 2014-Aug-22 17:33 UTC. Time now 2014-Aug-22 17:46 UTC.
Position N 35°35' E 139°53'.

Length 87 m; draft 4.9 m.

Type: Ship (hazmat cat A). MMSI: 431600499.

Date/timePositionNaut miles runAvg speedWind from/ knotsBaromVisibWave heightAir tempDewpointWater temp
2014-Aug-22 17:33N 35°35' E 139°53'0 0.0
2014-Aug-22 16:33N 35°35' E 139°53'0 0.0
2014-Aug-22 15:33N 35°35' E 139°53'0 0.0
2014-Aug-22 14:33N 35°35' E 139°53'0 0.0
2014-Aug-22 13:33N 35°35' E 139°53'0 0.0
2014-Aug-22 12:33N 35°35' E 139°53'0 0.1
2014-Aug-22 11:33N 35°34' E 139°53'1010.4
2014-Aug-22 10:33N 35°25' E 139°47'1010.1
2014-Aug-22 09:33N 35°15' E 139°47'1111.4
2014-Aug-22 08:33N 35°04' E 139°43'1211.8
2014-Aug-22 07:33N 34°57' E 139°32'230 9.8
2014-Aug-21 08:07N 34°02' E 135°01'610.0
2014-Aug-21 07:33N 34°08' E 134°60'1010.0
2014-Aug-21 06:33N 34°18' E 134°59'1010.2
2014-Aug-21 05:33N 34°28' E 135°01'10 9.6
2014-Aug-21 04:33N 34°37' E 135°01'12010.6
2014-Aug-20 17:14N 33°58' E 132°43'1 0.0
2014-Aug-18 21:33N 33°58' E 132°42'10411.2
2014-Aug-18 12:19N 34°40' E 134°37'102 3.0
2014-Aug-17 02:33N 33°59' E 132°44'4 0.1
2014-Aug-15 21:04N 33°57' E 132°41'  
2014-Aug-13 04:34N 34°37' E 134°55'9 9.1
2014-Aug-13 03:34N 34°34' E 135°05'1311.8
2014-Aug-13 02:27N 34°21' E 135°01'1111.7
2014-Aug-13 01:33N 34°11' E 134°60'  
Track history (hours):
 
Tides and Currents Weather Stations Pressure Air Temp Water Temp Dewpoint Dewpoint Depression Visibility Wind Speed Wind Dir Waves Ship Positions

Udo Maru

Last reported at 2014-Aug-22 17:33 UTC. Time now 2014-Aug-22 17:46 UTC.
Position N 35°35' E 139°53'.

Length 87 m; draft 4.9 m.

Type: Ship (hazmat cat A). MMSI: 431600499.

Date/timePositionNaut miles runAvg speedWind from/ knotsBaromVisibWave heightAir tempDewpointWater temp
2014-Aug-22 17:33N 35°35' E 139°53'0 0.0
2014-Aug-22 16:33N 35°35' E 139°53'0 0.0
2014-Aug-22 15:33N 35°35' E 139°53'0 0.0
2014-Aug-22 14:33N 35°35' E 139°53'0 0.0
2014-Aug-22 13:33N 35°35' E 139°53'0 0.0
2014-Aug-22 12:33N 35°35' E 139°53'0 0.1
2014-Aug-22 11:33N 35°34' E 139°53'1010.4
2014-Aug-22 10:33N 35°25' E 139°47'1010.1
2014-Aug-22 09:33N 35°15' E 139°47'1111.4
2014-Aug-22 08:33N 35°04' E 139°43'1211.8
2014-Aug-22 07:33N 34°57' E 139°32'230 9.8
2014-Aug-21 08:07N 34°02' E 135°01'610.0
2014-Aug-21 07:33N 34°08' E 134°60'1010.0
2014-Aug-21 06:33N 34°18' E 134°59'1010.2
2014-Aug-21 05:33N 34°28' E 135°01'10 9.6
2014-Aug-21 04:33N 34°37' E 135°01'12010.6
2014-Aug-20 17:14N 33°58' E 132°43'1 0.0
2014-Aug-18 21:33N 33°58' E 132°42'10411.2
2014-Aug-18 12:19N 34°40' E 134°37'102 3.0
2014-Aug-17 02:33N 33°59' E 132°44'4 0.1
2014-Aug-15 21:04N 33°57' E 132°41'  
2014-Aug-13 04:34N 34°37' E 134°55'9 9.1
2014-Aug-13 03:34N 34°34' E 135°05'1311.8
2014-Aug-13 02:27N 34°21' E 135°01'1111.7
2014-Aug-13 01:33N 34°11' E 134°60'  

Dump ship's entire track history